sensor_id;sensor_type;location;lat;lon;timestamp;pressure;altitude;pressure_sealevel;temperature;humidity
76866;BME280;66647;52.124;5.416;2023-02-02T00:00:25;102216.28;;;6.49;94.03
76866;BME280;66647;52.124;5.416;2023-02-02T00:02:53;102209.72;;;6.50;92.94
76866;BME280;66647;52.124;5.416;2023-02-02T00:05:20;102211.94;;;6.48;93.39
76866;BME280;66647;52.124;5.416;2023-02-02T00:07:53;102217.38;;;6.48;93.31
76866;BME280;66647;52.124;5.416;2023-02-02T00:10:34;102209.19;;;6.48;93.54
76866;BME280;66647;52.124;5.416;2023-02-02T00:13:01;102214.91;;;6.47;93.23
76866;BME280;66647;52.124;5.416;2023-02-02T00:15:30;102218.72;;;6.46;93.29
76866;BME280;66647;52.124;5.416;2023-02-02T00:18:17;102206.19;;;6.45;93.41
76866;BME280;66647;52.124;5.416;2023-02-02T00:20:43;102217.34;;;6.43;93.35
76866;BME280;66647;52.124;5.416;2023-02-02T00:23:13;102210.25;;;6.42;93.54
76866;BME280;66647;52.124;5.416;2023-02-02T00:25:48;102218.97;;;6.44;93.24
76866;BME280;66647;52.124;5.416;2023-02-02T00:28:16;102210.81;;;6.44;93.86
76866;BME280;66647;52.124;5.416;2023-02-02T00:30:58;102212.97;;;6.42;93.71
76866;BME280;66647;52.124;5.416;2023-02-02T00:33:53;102208.06;;;6.39;93.67
76866;BME280;66647;52.124;5.416;2023-02-02T00:36:22;102215.13;;;6.40;94.17
76866;BME280;66647;52.124;5.416;2023-02-02T00:42:25;102217.88;;;6.40;93.71
76866;BME280;66647;52.124;5.416;2023-02-02T00:44:52;102211.84;;;6.38;93.90
76866;BME280;66647;52.124;5.416;2023-02-02T00:47:48;102222.75;;;6.38;94.17
76866;BME280;66647;52.124;5.416;2023-02-02T00:50:19;102205.59;;;6.37;93.65
76866;BME280;66647;52.124;5.416;2023-02-02T00:52:47;102211.84;;;6.38;94.55
76866;BME280;66647;52.124;5.416;2023-02-02T00:55:15;102205.06;;;6.40;94.49
76866;BME280;66647;52.124;5.416;2023-02-02T00:57:45;102217.59;;;6.42;93.83
76866;BME280;66647;52.124;5.416;2023-02-02T01:00:25;102215.13;;;6.40;94.49
76866;BME280;66647;52.124;5.416;2023-02-02T01:02:53;102217.31;;;6.38;94.27
76866;BME280;66647;52.124;5.416;2023-02-02T01:05:21;102221.94;;;6.37;94.51
76866;BME280;66647;52.124;5.416;2023-02-02T01:07:49;102211.03;;;6.37;94.21
76866;BME280;66647;52.124;5.416;2023-02-02T01:10:17;102224.91;;;6.36;94.57
76866;BME280;66647;52.124;5.416;2023-02-02T01:12:45;102226.81;;;6.35;94.10
76866;BME280;66647;52.124;5.416;2023-02-02T01:15:12;102218.91;;;6.34;94.28
76866;BME280;66647;52.124;5.416;2023-02-02T01:18:04;102226.53;;;6.32;93.84
76866;BME280;66647;52.124;5.416;2023-02-02T01:20:33;102225.16;;;6.29;93.73
76866;BME280;66647;52.124;5.416;2023-02-02T01:23:03;102229.22;;;6.27;93.94
76866;BME280;66647;52.124;5.416;2023-02-02T01:25:30;102233.28;;;6.24;93.74
76866;BME280;66647;52.124;5.416;2023-02-02T01:28:35;102229.19;;;6.22;93.72
76866;BME280;66647;52.124;5.416;2023-02-02T01:31:27;102229.44;;;6.20;93.61
76866;BME280;66647;52.124;5.416;2023-02-02T01:33:55;102224.53;;;6.17;93.39
76866;BME280;66647;52.124;5.416;2023-02-02T01:36:34;102241.69;;;6.18;93.36
76866;BME280;66647;52.124;5.416;2023-02-02T01:39:01;102235.69;;;6.16;93.07
76866;BME280;66647;52.124;5.416;2023-02-02T01:41:28;102236.78;;;6.15;93.36
76866;BME280;66647;52.124;5.416;2023-02-02T01:44:04;102236.78;;;6.15;93.24
76866;BME280;66647;52.124;5.416;2023-02-02T01:46:33;102241.66;;;6.13;92.95
76866;BME280;66647;52.124;5.416;2023-02-02T01:49:25;102240.03;;;6.12;93.15
76866;BME280;66647;52.124;5.416;2023-02-02T01:52:20;102241.66;;;6.13;93.25
76866;BME280;66647;52.124;5.416;2023-02-02T01:55:10;102245.47;;;6.12;93.43
76866;BME280;66647;52.124;5.416;2023-02-02T02:00:50;102241.38;;;6.09;93.72
76866;BME280;66647;52.124;5.416;2023-02-02T02:03:23;102246.00;;;6.09;94.18
76866;BME280;66647;52.124;5.416;2023-02-02T02:09:14;102246.50;;;6.05;93.84
76866;BME280;66647;52.124;5.416;2023-02-02T02:11:55;102240.25;;;6.05;93.87
76866;BME280;66647;52.124;5.416;2023-02-02T02:14:29;102241.06;;;6.05;94.55
76866;BME280;66647;52.124;5.416;2023-02-02T02:17:34;102235.63;;;6.05;94.38
76866;BME280;66647;52.124;5.416;2023-02-02T02:36:49;102214.34;;;6.02;95.23
76866;BME280;66647;52.124;5.416;2023-02-02T02:39:19;102224.44;;;6.02;94.91
76866;BME280;66647;52.124;5.416;2023-02-02T02:41:55;102226.31;;;6.01;94.74
76866;BME280;66647;52.124;5.416;2023-02-02T02:44:23;102212.97;;;6.00;95.05
76866;BME280;66647;52.124;5.416;2023-02-02T02:46:53;102207.78;;;5.98;95.52
76866;BME280;66647;52.124;5.416;2023-02-02T02:49:28;102208.59;;;5.99;95.25
76866;BME280;66647;52.124;5.416;2023-02-02T02:51:57;102200.69;;;5.97;95.29
76866;BME280;66647;52.124;5.416;2023-02-02T02:54:36;102193.63;;;5.96;95.09
76866;BME280;66647;52.124;5.416;2023-02-02T02:57:33;102199.88;;;5.97;95.07
76866;BME280;66647;52.124;5.416;2023-02-02T03:00:25;102196.34;;;5.96;94.76
76866;BME280;66647;52.124;5.416;2023-02-02T03:03:32;102187.91;;;5.98;94.75
76866;BME280;66647;52.124;5.416;2023-02-02T03:06:21;102209.69;;;5.98;95.26
76866;BME280;66647;52.124;5.416;2023-02-02T03:09:08;102193.09;;;5.99;95.09
76866;BME280;66647;52.124;5.416;2023-02-02T03:11:36;102208.09;;;6.02;94.45
76866;BME280;66647;52.124;5.416;2023-02-02T03:14:05;102214.34;;;6.02;94.73
76866;BME280;66647;52.124;5.416;2023-02-02T03:16:36;102215.19;;;6.03;94.86
76866;BME280;66647;52.124;5.416;2023-02-02T03:19:25;102207.56;;;6.05;94.47
76866;BME280;66647;52.124;5.416;2023-02-02T03:21:56;102213.84;;;6.05;94.45
76866;BME280;66647;52.124;5.416;2023-02-02T03:24:37;102222.00;;;6.05;94.53
76866;BME280;66647;52.124;5.416;2023-02-02T03:27:04;102225.28;;;6.07;94.37
76866;BME280;66647;52.124;5.416;2023-02-02T03:29:46;102231.28;;;6.10;95.00
76866;BME280;66647;52.124;5.416;2023-02-02T03:32:14;102232.69;;;6.12;94.40
76866;BME280;66647;52.124;5.416;2023-02-02T03:34:58;102233.50;;;6.13;94.71
76866;BME280;66647;52.124;5.416;2023-02-02T03:37:28;102240.31;;;6.15;94.55
76866;BME280;66647;52.124;5.416;2023-02-02T03:40:20;102237.34;;;6.17;94.17
76866;BME280;66647;52.124;5.416;2023-02-02T03:42:47;102229.19;;;6.17;94.65
76866;BME280;66647;52.124;5.416;2023-02-02T03:45:14;102229.44;;;6.20;94.59
76866;BME280;66647;52.124;5.416;2023-02-02T03:47:41;102227.53;;;6.21;94.26
76866;BME280;66647;52.124;5.416;2023-02-02T03:50:08;102232.16;;;6.20;94.61
76866;BME280;66647;52.124;5.416;2023-02-02T03:52:35;102225.91;;;6.20;94.04
76866;BME280;66647;52.124;5.416;2023-02-02T03:55:02;102220.44;;;6.20;94.39
76866;BME280;66647;52.124;5.416;2023-02-02T03:57:34;102222.09;;;6.21;94.37
76866;BME280;66647;52.124;5.416;2023-02-02T04:00:05;102218.28;;;6.22;94.18
76866;BME280;66647;52.124;5.416;2023-02-02T04:02:37;102223.22;;;6.25;93.79
76866;BME280;66647;52.124;5.416;2023-02-02T04:05:29;102213.13;;;6.25;94.23
76866;BME280;66647;52.124;5.416;2023-02-02T04:07:56;102218.59;;;6.25;94.23
76866;BME280;66647;52.124;5.416;2023-02-02T04:10:22;102212.31;;;6.25;93.30
76866;BME280;66647;52.124;5.416;2023-02-02T04:12:49;102213.97;;;6.26;94.09
76866;BME280;66647;52.124;5.416;2023-02-02T04:15:16;102213.69;;;6.27;93.68
76866;BME280;66647;52.124;5.416;2023-02-02T04:17:49;102218.63;;;6.30;93.59
76866;BME280;66647;52.124;5.416;2023-02-02T04:20:16;102221.09;;;6.32;93.58
76866;BME280;66647;52.124;5.416;2023-02-02T04:23:01;102212.66;;;6.33;93.30
76866;BME280;66647;52.124;5.416;2023-02-02T04:25:28;102196.03;;;6.35;93.17
76866;BME280;66647;52.124;5.416;2023-02-02T04:27:54;102193.31;;;6.35;92.96
76866;BME280;66647;52.124;5.416;2023-02-02T04:30:21;102183.25;;;6.35;92.90
76866;BME280;66647;52.124;5.416;2023-02-02T04:32:57;102203.13;;;6.36;93.00
76866;BME280;66647;52.124;5.416;2023-02-02T04:35:32;102219.22;;;6.37;92.66
76866;BME280;66647;52.124;5.416;2023-02-02T04:37:59;102220.28;;;6.36;92.98
76866;BME280;66647;52.124;5.416;2023-02-02T04:40:51;102227.13;;;6.39;92.72
76866;BME280;66647;52.124;5.416;2023-02-02T04:43:18;102219.22;;;6.37;92.78
76866;BME280;66647;52.124;5.416;2023-02-02T04:45:55;102225.47;;;6.38;92.75
76866;BME280;66647;52.124;5.416;2023-02-02T04:48:22;102223.88;;;6.42;93.40
76866;BME280;66647;52.124;5.416;2023-02-02T04:51:13;102236.41;;;6.43;92.82
76866;BME280;66647;52.124;5.416;2023-02-02T04:53:45;102233.44;;;6.45;93.22
76866;BME280;66647;52.124;5.416;2023-02-02T04:59:56;102233.72;;;6.48;92.48
76866;BME280;66647;52.124;5.416;2023-02-02T05:02:23;102247.88;;;6.50;92.22
76866;BME280;66647;52.124;5.416;2023-02-02T05:08:16;102246.53;;;6.53;92.29
76866;BME280;66647;52.124;5.416;2023-02-02T05:10:58;102246.81;;;6.56;92.69
76866;BME280;66647;52.124;5.416;2023-02-02T05:14:05;102249.53;;;6.56;92.33
76866;BME280;66647;52.124;5.416;2023-02-02T05:16:33;102250.63;;;6.55;92.54
76866;BME280;66647;52.124;5.416;2023-02-02T05:22:27;102240.56;;;6.56;92.21
76866;BME280;66647;52.124;5.416;2023-02-02T05:24:56;102235.91;;;6.56;92.49
76866;BME280;66647;52.124;5.416;2023-02-02T05:27:24;102236.47;;;6.58;92.08
76866;BME280;66647;52.124;5.416;2023-02-02T05:30:46;102244.66;;;6.58;92.24
76866;BME280;66647;52.124;5.416;2023-02-02T05:45:00;102241.38;;;6.56;92.91
76866;BME280;66647;52.124;5.416;2023-02-02T05:47:42;102240.56;;;6.56;92.83
76866;BME280;66647;52.124;5.416;2023-02-02T05:53:30;102249.28;;;6.58;92.91
76866;BME280;66647;52.124;5.416;2023-02-02T05:55:57;102246.81;;;6.56;92.47
76866;BME280;66647;52.124;5.416;2023-02-02T05:58:42;102247.09;;;6.55;92.41
76866;BME280;66647;52.124;5.416;2023-02-02T06:01:09;102251.72;;;6.54;93.09
76866;BME280;66647;52.124;5.416;2023-02-02T06:03:36;102256.09;;;6.55;92.94
76866;BME280;66647;52.124;5.416;2023-02-02T06:09:20;102256.09;;;6.55;92.67
76866;BME280;66647;52.124;5.416;2023-02-02T06:11:50;102263.69;;;6.53;93.55
76866;BME280;66647;52.124;5.416;2023-02-02T06:14:31;102256.59;;;6.52;93.98
76866;BME280;66647;52.124;5.416;2023-02-02T06:17:01;102264.78;;;6.52;93.93
76866;BME280;66647;52.124;5.416;2023-02-02T06:19:32;102260.41;;;6.51;93.82
76866;BME280;66647;52.124;5.416;2023-02-02T06:22:07;102268.06;;;6.49;93.22
76866;BME280;66647;52.124;5.416;2023-02-02T06:24:34;102272.69;;;6.49;94.08
76866;BME280;66647;52.124;5.416;2023-02-02T06:27:04;102271.06;;;6.48;94.22
76866;BME280;66647;52.124;5.416;2023-02-02T06:29:31;102274.03;;;6.46;94.42
76866;BME280;66647;52.124;5.416;2023-02-02T06:31:57;102275.94;;;6.46;94.10
76866;BME280;66647;52.124;5.416;2023-02-02T06:35:04;102278.66;;;6.46;94.17
76866;BME280;66647;52.124;5.416;2023-02-02T06:37:33;102284.38;;;6.44;94.45
76866;BME280;66647;52.124;5.416;2023-02-02T06:40:00;102287.09;;;6.44;94.61
76866;BME280;66647;52.124;5.416;2023-02-02T06:42:29;102285.47;;;6.43;94.73
76866;BME280;66647;52.124;5.416;2023-02-02T06:45:00;102283.81;;;6.42;94.59
76866;BME280;66647;52.124;5.416;2023-02-02T06:47:32;102298.53;;;6.41;95.29
76866;BME280;66647;52.124;5.416;2023-02-02T06:49:59;102293.88;;;6.42;94.96
76866;BME280;66647;52.124;5.416;2023-02-02T06:52:27;102293.06;;;6.41;95.20
76866;BME280;66647;52.124;5.416;2023-02-02T06:54:57;102304.78;;;6.42;95.01
76866;BME280;66647;52.124;5.416;2023-02-02T06:57:30;102303.97;;;6.41;95.38
76866;BME280;66647;52.124;5.416;2023-02-02T07:00:04;102308.59;;;6.40;94.94
76866;BME280;66647;52.124;5.416;2023-02-02T07:02:34;102301.50;;;6.39;95.28
76866;BME280;66647;52.124;5.416;2023-02-02T07:05:01;102300.69;;;6.39;94.80
76866;BME280;66647;52.124;5.416;2023-02-02T07:07:32;102300.69;;;6.39;95.69
76866;BME280;66647;52.124;5.416;2023-02-02T07:10:02;102296.88;;;6.40;95.86
76866;BME280;66647;52.124;5.416;2023-02-02T07:12:32;102285.16;;;6.39;95.72
76866;BME280;66647;52.124;5.416;2023-02-02T07:14:59;102286.25;;;6.38;95.66
76866;BME280;66647;52.124;5.416;2023-02-02T07:17:25;102294.69;;;6.37;95.79
76866;BME280;66647;52.124;5.416;2023-02-02T07:20:24;102299.28;;;6.36;96.20
76866;BME280;66647;52.124;5.416;2023-02-02T07:23:14;102303.66;;;6.37;96.04
76866;BME280;66647;52.124;5.416;2023-02-02T07:26:07;102302.03;;;6.36;95.91
76866;BME280;66647;52.124;5.416;2023-02-02T07:28:35;102299.56;;;6.35;96.44
76866;BME280;66647;52.124;5.416;2023-02-02T07:31:12;102305.00;;;6.35;96.43
76866;BME280;66647;52.124;5.416;2023-02-02T07:34:27;102314.00;;;6.35;96.05
76866;BME280;66647;52.124;5.416;2023-02-02T07:37:28;102314.81;;;6.36;96.54
76866;BME280;66647;52.124;5.416;2023-02-02T07:40:25;102321.09;;;6.36;96.12
76866;BME280;66647;52.124;5.416;2023-02-02T07:43:14;102322.75;;;6.37;96.52
76866;BME280;66647;52.124;5.416;2023-02-02T07:46:35;102333.38;;;6.39;96.27
76866;BME280;66647;52.124;5.416;2023-02-02T07:49:45;102330.41;;;6.40;95.73
76866;BME280;66647;52.124;5.416;2023-02-02T07:52:28;102335.84;;;6.40;95.82
76866;BME280;66647;52.124;5.416;2023-02-02T07:54:54;102336.41;;;6.43;96.13
76866;BME280;66647;52.124;5.416;2023-02-02T07:58:26;102343.22;;;6.45;95.90
76866;BME280;66647;52.124;5.416;2023-02-02T08:01:02;102344.88;;;6.46;95.18
76866;BME280;66647;52.124;5.416;2023-02-02T08:03:29;102341.06;;;6.47;95.48
76866;BME280;66647;52.124;5.416;2023-02-02T08:05:56;102342.16;;;6.46;95.94
76866;BME280;66647;52.124;5.416;2023-02-02T08:08:24;102347.59;;;6.46;95.64
76866;BME280;66647;52.124;5.416;2023-02-02T08:10:51;102347.09;;;6.49;95.31
76866;BME280;66647;52.124;5.416;2023-02-02T08:13:19;102353.06;;;6.51;95.19
76866;BME280;66647;52.124;5.416;2023-02-02T08:15:46;102358.81;;;6.55;95.14
76866;BME280;66647;52.124;5.416;2023-02-02T08:18:26;102353.09;;;6.56;95.38
76866;BME280;66647;52.124;5.416;2023-02-02T08:21:00;102365.38;;;6.59;94.91
76866;BME280;66647;52.124;5.416;2023-02-02T08:23:27;102362.41;;;6.60;94.54
76866;BME280;66647;52.124;5.416;2023-02-02T08:26:18;102369.50;;;6.61;94.29
76866;BME280;66647;52.124;5.416;2023-02-02T08:28:50;102369.50;;;6.61;94.93
76866;BME280;66647;52.124;5.416;2023-02-02T08:31:21;102374.13;;;6.61;94.17
76866;BME280;66647;52.124;5.416;2023-02-02T08:34:12;102374.94;;;6.61;93.87
76866;BME280;66647;52.124;5.416;2023-02-02T08:36:42;102373.88;;;6.62;94.48
76866;BME280;66647;52.124;5.416;2023-02-02T08:39:23;102385.31;;;6.64;94.31
76866;BME280;66647;52.124;5.416;2023-02-02T08:42:04;102383.72;;;6.68;93.93
76866;BME280;66647;52.124;5.416;2023-02-02T08:44:30;102396.28;;;6.69;93.86
76866;BME280;66647;52.124;5.416;2023-02-02T08:47:30;102392.78;;;6.74;94.18
76866;BME280;66647;52.124;5.416;2023-02-02T08:50:26;102396.34;;;6.80;93.99
76866;BME280;66647;52.124;5.416;2023-02-02T08:52:53;102400.72;;;6.81;93.83
76866;BME280;66647;52.124;5.416;2023-02-02T08:55:35;102411.06;;;6.84;93.26
76866;BME280;66647;52.124;5.416;2023-02-02T08:58:02;102405.09;;;6.87;93.51
76866;BME280;66647;52.124;5.416;2023-02-02T09:00:30;102404.06;;;6.93;93.47
76866;BME280;66647;52.124;5.416;2023-02-02T09:03:27;102399.75;;;7.02;93.22
76866;BME280;66647;52.124;5.416;2023-02-02T09:06:03;102404.75;;;7.20;92.88
76866;BME280;66647;52.124;5.416;2023-02-02T09:08:30;102412.19;;;7.30;91.89
76866;BME280;66647;52.124;5.416;2023-02-02T09:11:10;102416.28;;;7.32;91.58
76866;BME280;66647;52.124;5.416;2023-02-02T09:13:38;102410.88;;;7.37;92.14
76866;BME280;66647;52.124;5.416;2023-02-02T09:16:07;102417.44;;;7.41;92.06
76866;BME280;66647;52.124;5.416;2023-02-02T09:22:37;102434.41;;;7.59;91.34
76866;BME280;66647;52.124;5.416;2023-02-02T09:25:27;102435.53;;;7.63;90.79
76866;BME280;66647;52.124;5.416;2023-02-02T09:28:19;102433.66;;;7.68;90.76
76866;BME280;66647;52.124;5.416;2023-02-02T09:30:46;102436.94;;;7.70;90.87
76866;BME280;66647;52.124;5.416;2023-02-02T09:36:56;102452.50;;;7.80;91.45
76866;BME280;66647;52.124;5.416;2023-02-02T09:40:02;102450.88;;;7.74;89.59
76866;BME280;66647;52.124;5.416;2023-02-02T09:43:29;102457.97;;;7.70;91.12
76866;BME280;66647;52.124;5.416;2023-02-02T09:51:29;102455.50;;;7.68;91.12
76866;BME280;66647;52.124;5.416;2023-02-02T09:58:19;102466.66;;;7.62;90.65
76866;BME280;66647;52.124;5.416;2023-02-02T10:00:59;102465.53;;;7.58;90.44
76866;BME280;66647;52.124;5.416;2023-02-02T10:04:35;102468.53;;;7.56;90.97
76866;BME280;66647;52.124;5.416;2023-02-02T10:07:08;102469.38;;;7.62;90.31
76866;BME280;66647;52.124;5.416;2023-02-02T10:10:28;102479.50;;;7.66;91.06
76866;BME280;66647;52.124;5.416;2023-02-02T10:13:30;102472.97;;;7.67;90.01
76866;BME280;66647;52.124;5.416;2023-02-02T10:16:23;102487.97;;;7.65;89.84
76866;BME280;66647;52.124;5.416;2023-02-02T10:18:58;102483.59;;;7.64;90.07
76866;BME280;66647;52.124;5.416;2023-02-02T10:22:23;102490.97;;;7.63;89.77
76866;BME280;66647;52.124;5.416;2023-02-02T10:32:02;102503.31;;;7.76;90.06
76866;BME280;66647;52.124;5.416;2023-02-02T10:41:25;102505.53;;;7.89;90.40
76866;BME280;66647;52.124;5.416;2023-02-02T10:47:58;102506.66;;;7.93;89.87
76866;BME280;66647;52.124;5.416;2023-02-02T10:50:28;102512.41;;;7.97;89.48
76866;BME280;66647;52.124;5.416;2023-02-02T10:52:59;102516.22;;;7.96;89.60
76866;BME280;66647;52.124;5.416;2023-02-02T10:55:42;102520.03;;;7.95;90.16
76866;BME280;66647;52.124;5.416;2023-02-02T10:58:30;102519.22;;;7.94;90.22
76866;BME280;66647;52.124;5.416;2023-02-02T11:01:17;102516.22;;;7.96;89.63
76866;BME280;66647;52.124;5.416;2023-02-02T11:03:48;102517.03;;;7.96;89.50
76866;BME280;66647;52.124;5.416;2023-02-02T11:06:35;102516.22;;;7.96;90.28
76866;BME280;66647;52.124;5.416;2023-02-02T11:09:31;102517.31;;;7.95;89.39
76866;BME280;66647;52.124;5.416;2023-02-02T11:12:33;102512.66;;;7.95;89.46
76866;BME280;66647;52.124;5.416;2023-02-02T11:15:05;102503.94;;;7.98;90.16
76866;BME280;66647;52.124;5.416;2023-02-02T11:17:33;102510.22;;;7.99;89.01
76866;BME280;66647;52.124;5.416;2023-02-02T11:20:01;102503.94;;;7.98;89.58
76866;BME280;66647;52.124;5.416;2023-02-02T11:22:59;102502.84;;;7.99;88.35
76866;BME280;66647;52.124;5.416;2023-02-02T11:25:30;102507.78;;;8.02;88.70
76866;BME280;66647;52.124;5.416;2023-02-02T11:28:21;102498.22;;;8.05;88.88
76866;BME280;66647;52.124;5.416;2023-02-02T11:30:55;102502.31;;;8.02;88.39
76866;BME280;66647;52.124;5.416;2023-02-02T11:33:30;102503.44;;;8.06;88.76
76866;BME280;66647;52.124;5.416;2023-02-02T11:36:04;102504.00;;;8.08;88.01
76866;BME280;66647;52.124;5.416;2023-02-02T11:38:34;102505.63;;;8.09;87.74
76866;BME280;66647;52.124;5.416;2023-02-02T11:41:06;102508.38;;;8.09;87.53
76866;BME280;66647;52.124;5.416;2023-02-02T11:43:52;102511.38;;;8.08;87.34
76866;BME280;66647;52.124;5.416;2023-02-02T11:46:22;102512.44;;;8.07;87.04
76866;BME280;66647;52.124;5.416;2023-02-02T11:49:17;102504.81;;;8.09;86.53
76866;BME280;66647;52.124;5.416;2023-02-02T11:51:57;102502.88;;;8.15;86.62
76866;BME280;66647;52.124;5.416;2023-02-02T11:54:27;102499.63;;;8.18;87.47
76866;BME280;66647;52.124;5.416;2023-02-02T11:56:59;102497.97;;;8.17;86.70
76866;BME280;66647;52.124;5.416;2023-02-02T11:59:40;102497.44;;;8.15;86.14
76866;BME280;66647;52.124;5.416;2023-02-02T12:02:33;102502.88;;;8.15;87.10
76866;BME280;66647;52.124;5.416;2023-02-02T12:46:18;102486.19;;;8.01;87.22
76866;BME280;66647;52.124;5.416;2023-02-02T12:57:54;102489.72;;;7.96;86.83
76866;BME280;66647;52.124;5.416;2023-02-02T13:08:19;102480.41;;;7.87;88.66
76866;BME280;66647;52.124;5.416;2023-02-02T13:11:19;102477.66;;;7.87;89.13
76866;BME280;66647;52.124;5.416;2023-02-02T13:18:07;102486.94;;;7.81;90.14
76866;BME280;66647;52.124;5.416;2023-02-02T13:24:43;102490.47;;;7.82;91.11
76866;BME280;66647;52.124;5.416;2023-02-02T13:27:38;102485.28;;;7.80;90.61
76866;BME280;66647;52.124;5.416;2023-02-02T13:30:45;102498.69;;;7.77;90.88
76866;BME280;66647;52.124;5.416;2023-02-02T13:33:25;102490.75;;;7.75;91.57
76866;BME280;66647;52.124;5.416;2023-02-02T13:36:08;102497.28;;;7.74;91.86
76866;BME280;66647;52.124;5.416;2023-02-02T13:39:42;102500.56;;;7.71;91.38
76866;BME280;66647;52.124;5.416;2023-02-02T14:02:58;102493.78;;;7.79;92.89
76866;BME280;66647;52.124;5.416;2023-02-02T14:05:39;102499.50;;;7.77;93.53
76866;BME280;66647;52.124;5.416;2023-02-02T14:11:54;102494.31;;;7.75;93.24
76866;BME280;66647;52.124;5.416;2023-02-02T14:14:44;102505.78;;;7.78;93.27
76866;BME280;66647;52.124;5.416;2023-02-02T14:19:48;102511.25;;;7.78;94.09
76866;BME280;66647;52.124;5.416;2023-02-02T14:28:47;102510.94;;;7.74;93.33
76866;BME280;66647;52.124;5.416;2023-02-02T14:31:29;102513.13;;;7.72;93.66
76866;BME280;66647;52.124;5.416;2023-02-02T14:44:14;102517.19;;;7.69;94.43
76866;BME280;66647;52.124;5.416;2023-02-02T14:47:37;102521.84;;;7.69;93.92
76866;BME280;66647;52.124;5.416;2023-02-02T14:50:24;102522.91;;;7.63;94.32
76866;BME280;66647;52.124;5.416;2023-02-02T14:53:48;102526.16;;;7.60;94.47
76866;BME280;66647;52.124;5.416;2023-02-02T14:56:59;102522.59;;;7.59;93.88
76866;BME280;66647;52.124;5.416;2023-02-02T14:59:47;102533.22;;;7.56;94.31
76866;BME280;66647;52.124;5.416;2023-02-02T15:25:20;102545.19;;;7.50;95.21
76866;BME280;66647;52.124;5.416;2023-02-02T15:37:41;102541.94;;;7.53;95.00
76866;BME280;66647;52.124;5.416;2023-02-02T15:40:23;102538.13;;;7.54;94.92
76866;BME280;66647;52.124;5.416;2023-02-02T15:46:01;102546.88;;;7.56;94.82
76866;BME280;66647;52.124;5.416;2023-02-02T15:48:30;102538.94;;;7.54;94.94
76866;BME280;66647;52.124;5.416;2023-02-02T15:51:02;102538.13;;;7.54;95.39
76866;BME280;66647;52.124;5.416;2023-02-02T15:53:46;102548.22;;;7.53;94.75
76866;BME280;66647;52.124;5.416;2023-02-02T15:59:13;102544.66;;;7.53;95.00
76866;BME280;66647;52.124;5.416;2023-02-02T16:01:46;102545.75;;;7.52;94.85
76866;BME280;66647;52.124;5.416;2023-02-02T16:07:06;102540.81;;;7.49;95.59
76866;BME280;66647;52.124;5.416;2023-02-02T16:09:46;102560.22;;;7.47;95.49
76866;BME280;66647;52.124;5.416;2023-02-02T16:15:24;102559.91;;;7.49;95.07
76866;BME280;66647;52.124;5.416;2023-02-02T16:18:05;102570.84;;;7.49;95.01
76866;BME280;66647;52.124;5.416;2023-02-02T16:21:08;102582.31;;;7.46;95.42
76866;BME280;66647;52.124;5.416;2023-02-02T16:24:06;102580.66;;;7.45;95.35
76866;BME280;66647;52.124;5.416;2023-02-02T16:27:12;102595.41;;;7.44;95.65
76866;BME280;66647;52.124;5.416;2023-02-02T16:38:35;102594.56;;;7.43;95.00
76866;BME280;66647;52.124;5.416;2023-02-02T16:41:45;102590.72;;;7.39;95.20
76866;BME280;66647;52.124;5.416;2023-02-02T16:46:58;102598.34;;;7.37;94.55
76866;BME280;66647;52.124;5.416;2023-02-02T16:52:59;102595.88;;;7.35;95.35
76866;BME280;66647;52.124;5.416;2023-02-02T16:55:48;102594.22;;;7.34;95.43
76866;BME280;66647;52.124;5.416;2023-02-02T17:21:35;102631.56;;;7.29;95.08
76866;BME280;66647;52.124;5.416;2023-02-02T17:25:03;102613.78;;;7.26;95.54
76866;BME280;66647;52.124;5.416;2023-02-02T17:31:13;102618.16;;;7.27;95.10
76866;BME280;66647;52.124;5.416;2023-02-02T17:34:14;102623.63;;;7.27;95.16
76866;BME280;66647;52.124;5.416;2023-02-02T17:43:46;102631.28;;;7.30;95.09
76866;BME280;66647;52.124;5.416;2023-02-02T17:47:33;102629.66;;;7.29;94.54
76866;BME280;66647;52.124;5.416;2023-02-02T17:50:04;102629.91;;;7.28;94.85
76866;BME280;66647;52.124;5.416;2023-02-02T19:34:16;102590.88;;;6.95;94.52
76866;BME280;66647;52.124;5.416;2023-02-02T19:37:37;102581.31;;;6.93;94.47
76866;BME280;66647;52.124;5.416;2023-02-02T19:40:32;102584.03;;;6.93;95.42
76866;BME280;66647;52.124;5.416;2023-02-02T19:43:25;102596.59;;;6.94;95.42
76866;BME280;66647;52.124;5.416;2023-02-02T19:46:42;102599.84;;;6.91;95.29
76866;BME280;66647;52.124;5.416;2023-02-02T19:49:54;102596.53;;;6.89;94.71
76866;BME280;66647;52.124;5.416;2023-02-02T19:52:47;102603.06;;;6.88;95.54
76866;BME280;66647;52.124;5.416;2023-02-02T19:55:34;102590.53;;;6.87;95.10
76866;BME280;66647;52.124;5.416;2023-02-02T19:58:35;102597.63;;;6.88;94.41
76866;BME280;66647;52.124;5.416;2023-02-02T20:01:23;102595.97;;;6.87;95.35
76866;BME280;66647;52.124;5.416;2023-02-02T20:11:18;102612.84;;;6.84;95.51
76866;BME280;66647;52.124;5.416;2023-02-02T20:22:14;102620.50;;;6.87;94.84
76866;BME280;66647;52.124;5.416;2023-02-02T20:25:33;102629.25;;;6.89;94.80
76866;BME280;66647;52.124;5.416;2023-02-02T20:28:48;102625.47;;;6.90;95.11
76866;BME280;66647;52.124;5.416;2023-02-02T20:34:54;102635.59;;;6.94;94.80
76866;BME280;66647;52.124;5.416;2023-02-02T20:37:45;102620.88;;;6.95;95.39
76866;BME280;66647;52.124;5.416;2023-02-02T20:40:55;102623.34;;;6.97;95.70
76866;BME280;66647;52.124;5.416;2023-02-02T20:55:04;102617.63;;;6.98;95.42
76866;BME280;66647;52.124;5.416;2023-02-02T20:58:04;102616.31;;;7.01;95.28
76866;BME280;66647;52.124;5.416;2023-02-02T21:01:44;102628.91;;;7.07;95.24
76866;BME280;66647;52.124;5.416;2023-02-02T21:04:46;102622.44;;;7.13;95.38
76866;BME280;66647;52.124;5.416;2023-02-02T21:07:34;102629.53;;;7.14;94.56
76866;BME280;66647;52.124;5.416;2023-02-02T21:15:08;102617.81;;;7.19;95.03
76866;BME280;66647;52.124;5.416;2023-02-02T21:28:49;102613.53;;;7.28;95.52
76866;BME280;66647;52.124;5.416;2023-02-02T21:34:40;102612.75;;;7.32;95.17